Terminal Aerodrome Forecast
Issued by NWS Omaha/Valley, NE

Home | Current Version | Previous Version | Graphics & Text | Print | Product List | Glossary On
Versions: 1 2 3 4 5 6 7 8 9 10 11 12 13 14
000
FTUS43 KOAX 201319 AAA
TAFOFK
TAF AMD
KOFK 201319Z 2013/2112 31014G23KT P6SM BKN025
     FM201700 32013G21KT P6SM SCT040
      TEMPO 2017/2019 BKN030
     FM202300 34010KT P6SM SCT100
     FM210200 01005KT P6SM BKN250=

USA.gov is the U.S. government's official web portal to all federal, state and local government web resources and services.